Time;durP1;ratioP1;P1;durP2;ratioP2;P2;SDS_P1;SDS_P2;PMS_P1;PMS_P2;Temp;Humidity;BMP_temperature;BMP_pressure;BME280_temperature;BME280_humidity;BME280_pressure;Samples;Min_cycle;Max_cycle;Signal;HPM_P1;HPM_P2
2022/04/14 00:00:17;;;;;;;;;14.67;14.67;;;;;17.18;78.60;101287.56;4913926;28;48105;-81
2022/04/14 00:02:42;;;;;;;;;19.33;16.67;;;;;17.10;79.15;101289.41;4928734;28;45756;-81
2022/04/14 00:05:08;;;;;;;;;18.33;16.33;;;;;17.08;80.34;101299.25;4911972;28;44820;-82
2022/04/14 00:07:33;;;;;;;;;18.67;16.00;;;;;16.97;80.04;101285.88;4928666;28;45512;-83
2022/04/14 00:10:03;;;;;;;;;14.00;13.00;;;;;17.11;80.20;101299.28;4915745;28;46967;-81
2022/04/14 00:12:28;;;;;;;;;15.00;15.00;;;;;17.02;80.71;101297.50;4915730;28;44848;-81
2022/04/14 00:14:54;;;;;;;;;13.67;13.67;;;;;17.04;80.64;101302.88;4933779;28;45472;-82
2022/04/14 00:17:20;;;;;;;;;15.67;14.00;;;;;17.00;80.70;101300.16;4916087;28;45554;-81
2022/04/14 00:19:46;;;;;;;;;18.67;18.67;;;;;17.04;81.15;101294.81;4917457;28;46476;-82
2022/04/14 00:22:13;;;;;;;;;16.00;15.00;;;;;16.95;81.17;101302.00;4933524;28;45420;-80
2022/04/14 00:24:38;;;;;;;;;17.33;17.33;;;;;16.90;81.71;101302.91;4932952;28;44846;-81
2022/04/14 00:27:11;;;;;;;;;16.67;16.33;;;;;16.97;81.21;101304.69;4932257;28;45426;-81
2022/04/14 00:29:36;;;;;;;;;19.00;19.00;;;;;16.83;81.84;101304.72;4932729;28;46426;-80
2022/04/14 00:32:02;;;;;;;;;18.00;16.33;;;;;16.73;82.46;101300.25;4933486;28;45414;-80
2022/04/14 00:34:28;;;;;;;;;17.67;16.00;;;;;16.66;82.51;101296.66;4916363;28;45415;-81
2022/04/14 00:36:53;;;;;;;;;15.00;15.00;;;;;16.67;83.03;101297.56;4933538;28;45467;-82
2022/04/14 00:39:19;;;;;;;;;17.33;15.00;;;;;16.62;82.89;101300.25;4932823;28;45630;-80
2022/04/14 00:41:44;;;;;;;;;17.00;15.67;;;;;16.62;83.29;101288.63;4933168;28;45597;-80
2022/04/14 00:44:10;;;;;;;;;14.33;14.33;;;;;16.67;83.22;101294.88;4933581;28;45471;-80
2022/04/14 00:46:36;;;;;;;;;18.00;16.67;;;;;16.64;83.48;101289.50;4932247;28;45902;-82
2022/04/14 00:49:03;;;;;;;;;15.00;15.00;;;;;16.67;83.67;101295.78;4933175;28;46075;-81
2022/04/14 00:51:28;;;;;;;;;15.67;15.67;;;;;16.69;83.55;101295.78;4933229;28;45346;-81
2022/04/14 00:53:54;;;;;;;;;15.00;15.00;;;;;16.69;83.43;101298.47;4916175;28;45794;-81
2022/04/14 00:56:19;;;;;;;;;17.33;14.67;;;;;16.68;83.61;101297.53;4933306;28;45088;-83
2022/04/14 00:58:45;;;;;;;;;12.00;12.00;;;;;16.63;83.77;101294.00;4914705;28;47150;-82
2022/04/14 01:01:12;;;;;;;;;15.00;14.00;;;;;16.55;83.56;101285.94;4915312;28;45841;-82
2022/04/14 01:03:40;;;;;;;;;13.33;13.00;;;;;16.63;83.78;101290.44;4930442;28;45388;-81
2022/04/14 01:06:09;;;;;;;;;17.33;14.00;;;;;16.58;84.12;101291.31;4931066;28;45469;-82
2022/04/14 01:08:35;;;;;;;;;15.00;13.67;;;;;16.54;84.33;101305.66;4930260;28;45785;-81
2022/04/14 01:11:01;;;;;;;;;13.67;13.67;;;;;16.53;84.64;101303.84;4929330;28;45441;-81
2022/04/14 01:13:27;;;;;;;;;14.33;14.00;;;;;16.45;84.77;101302.97;4929950;28;45365;-81
2022/04/14 01:19:14;;;;;;;;;16.00;14.00;;;;;16.50;85.08;101301.19;4930911;28;44841;-81
2022/04/14 01:21:46;;;;;;;;;16.00;16.00;;;;;16.60;85.07;101294.91;4913193;28;45480;-80
2022/04/14 01:24:14;;;;;;;;;17.33;15.33;;;;;16.59;85.30;101309.22;4914720;28;45553;-80
2022/04/14 01:26:40;;;;;;;;;17.00;16.00;;;;;16.49;85.59;101299.38;4915193;28;45329;-80
2022/04/14 01:29:20;;;;;;;;;14.00;13.33;;;;;16.58;85.79;101303.84;4931481;28;45199;-81
2022/04/14 01:31:45;;;;;;;;;20.67;16.00;;;;;16.33;85.94;101290.44;4930474;28;44792;-80
2022/04/14 01:34:11;;;;;;;;;17.67;15.00;;;;;16.44;86.26;101302.97;4929136;28;45543;-80
2022/04/14 01:36:36;;;;;;;;;16.00;15.33;;;;;16.48;86.38;101316.41;4930642;28;45484;-82
2022/04/14 01:39:02;;;;;;;;;16.67;16.00;;;;;16.49;86.42;101301.19;4930978;28;45349;-81
2022/04/14 01:41:33;;;;;;;;;14.33;14.00;;;;;16.41;86.45;101301.19;4913855;28;45332;-83
2022/04/14 01:43:59;;;;;;;;;12.67;12.33;;;;;16.36;86.93;101297.59;4913269;28;45575;-80
2022/04/14 01:46:24;;;;;;;;;15.33;15.00;;;;;16.30;87.01;101289.56;4930631;28;44807;-82
2022/04/14 01:48:50;;;;;;;;;15.33;15.00;;;;;16.27;87.58;101290.44;4914799;28;47234;-81
2022/04/14 01:51:15;;;;;;;;;14.00;14.00;;;;;16.31;87.79;101302.09;4930348;28;45584;-81
2022/04/14 01:53:40;;;;;;;;;14.67;12.33;;;;;16.21;88.35;101287.78;4913006;28;45452;-80
2022/04/14 01:56:06;;;;;;;;;14.00;13.00;;;;;16.15;88.94;101279.72;4930106;28;45525;-82
2022/04/14 01:58:31;;;;;;;;;14.00;14.00;;;;;16.18;89.26;101291.38;4930502;28;45479;-81
2022/04/14 02:00:57;;;;;;;;;7.00;6.00;;;;;16.18;89.33;101296.72;4913298;28;45269;-82
2022/04/14 02:03:22;;;;;;;;;15.33;12.67;;;;;16.14;89.73;101297.63;4913828;28;45446;-81
2022/04/14 02:05:49;;;;;;;;;13.33;13.00;;;;;16.17;89.99;101294.91;4931176;28;46985;-81
2022/04/14 02:08:14;;;;;;;;;14.33;13.33;;;;;16.11;90.56;101294.94;4912828;28;45118;-81
2022/04/14 02:10:40;;;;;;;;;14.67;14.67;;;;;16.11;90.42;101299.41;4932033;28;45404;-81
2022/04/14 02:13:05;;;;;;;;;15.67;15.33;;;;;16.06;90.42;101291.38;4914620;28;45329;-80
2022/04/14 02:15:30;;;;;;;;;8.67;8.67;;;;;16.09;90.70;101294.03;4912956;28;45203;-81
2022/04/14 02:21:18;;;;;;;;;14.33;14.00;;;;;16.10;91.08;101289.59;4929046;28;44991;-81
2022/04/14 02:23:43;;;;;;;;;17.67;16.00;;;;;16.12;91.26;101291.38;4913410;28;45379;-81
2022/04/14 02:26:09;;;;;;;;;15.33;13.67;;;;;16.15;91.33;101290.47;4931826;28;45382;-81
2022/04/14 02:28:34;;;;;;;;;16.00;15.33;;;;;16.12;91.32;101286.00;4913669;28;47911;-80
2022/04/14 02:31:57;;;;;;;;;15.00;15.00;;;;;16.35;90.81;101299.41;4912491;28;45417;-80
2022/04/14 02:34:26;;;;;;;;;15.00;13.67;;;;;16.19;91.35;101282.41;4912772;28;45731;-82
2022/04/14 02:36:53;;;;;;;;;15.00;14.00;;;;;16.12;91.39;101290.47;4931972;28;44805;-81
2022/04/14 02:39:18;;;;;;;;;18.00;18.00;;;;;16.15;91.71;101298.50;4913298;28;45421;-81
2022/04/14 02:41:45;;;;;;;;;18.00;15.67;;;;;16.12;91.97;101296.72;4931454;28;45958;-82
2022/04/14 02:44:12;;;;;;;;;18.33;17.67;;;;;16.08;92.09;101291.34;4914192;28;45475;-82
2022/04/14 02:46:37;;;;;;;;;16.00;16.00;;;;;16.07;92.33;101302.97;4930880;28;45767;-80
2022/04/14 02:49:06;;;;;;;;;23.00;20.00;;;;;16.07;92.28;101277.03;4912208;28;46351;-81
2022/04/14 02:51:31;;;;;;;;;16.67;15.00;;;;;16.04;91.86;101298.53;4912937;28;45407;-80
2022/04/14 02:53:57;;;;;;;;;17.33;17.00;;;;;16.07;91.83;101302.97;4913338;28;45466;-81
2022/04/14 02:56:22;;;;;;;;;24.67;20.33;;;;;16.04;92.31;101290.47;4931375;28;45815;-81
2022/04/14 02:58:47;;;;;;;;;16.00;16.00;;;;;16.05;91.99;101292.25;4914066;28;47355;-80
2022/04/14 03:01:13;;;;;;;;;15.00;14.67;;;;;16.09;91.67;101309.25;4929874;28;45505;-82
2022/04/14 03:07:01;;;;;;;;;17.67;16.00;;;;;16.03;92.03;101307.44;4932055;28;44753;-80
2022/04/14 03:09:26;;;;;;;;;16.33;16.33;;;;;16.05;92.21;101311.03;4914666;28;46849;-81
2022/04/14 03:11:52;;;;;;;;;17.33;15.67;;;;;15.99;92.00;101302.97;4931232;28;45555;-82
2022/04/14 03:14:18;;;;;;;;;14.33;13.67;;;;;16.06;91.79;101304.78;4930879;28;45744;-81
2022/04/14 03:16:43;;;;;;;;;13.00;13.00;;;;;15.85;92.04;101272.56;4912817;28;44956;-81
2022/04/14 03:19:09;;;;;;;;;16.67;15.00;;;;;15.95;92.09;101299.38;4912408;28;46960;-82
2022/04/14 03:21:35;;;;;;;;;15.67;15.67;;;;;15.92;91.95;101307.44;4913349;28;45513;-81
2022/04/14 03:24:00;;;;;;;;;17.33;16.00;;;;;15.91;92.16;101304.75;4913325;28;45923;-80
2022/04/14 03:29:48;;;;;;;;;16.33;15.67;;;;;15.86;92.13;101317.28;4930506;28;45354;-83
2022/04/14 03:32:15;;;;;;;;;14.00;12.67;;;;;15.79;92.25;101314.59;4930584;28;44870;-82
2022/04/14 03:34:40;;;;;;;;;17.33;13.67;;;;;15.82;92.45;101319.06;4931003;28;45540;-81
2022/04/14 03:37:06;;;;;;;;;16.00;14.67;;;;;15.86;92.46;101325.34;4931248;28;44886;-80
2022/04/14 03:39:32;;;;;;;;;16.00;14.67;;;;;15.73;92.72;101322.59;4928868;28;45606;-80
2022/04/14 03:41:57;;;;;;;;;15.67;12.67;;;;;15.76;92.48;101336.03;4911330;28;45547;-82
2022/04/14 03:44:22;;;;;;;;;15.67;13.67;;;;;15.72;92.78;101326.19;4916792;28;45785;-81
2022/04/14 03:46:48;;;;;;;;;12.00;12.00;;;;;15.71;92.56;101327.03;4917348;28;44885;-82
2022/04/14 03:49:13;;;;;;;;;15.00;12.67;;;;;15.67;92.55;101322.53;4918075;28;48235;-81
2022/04/14 03:51:39;;;;;;;;;16.00;12.33;;;;;15.67;92.85;101330.59;4935417;28;45376;-81
2022/04/14 03:54:04;;;;;;;;;17.00;16.00;;;;;15.59;92.95;101322.56;4934016;28;45687;-81
2022/04/14 03:56:30;;;;;;;;;11.67;11.67;;;;;15.63;93.03;101330.59;4934006;28;45406;-82
2022/04/14 03:58:56;;;;;;;;;14.00;13.67;;;;;15.56;92.94;101322.53;4917194;28;48482;-80
2022/04/14 04:01:21;;;;;;;;;14.67;14.67;;;;;15.56;92.84;101335.06;4915943;28;45463;-81
2022/04/14 04:03:48;;;;;;;;;13.00;12.67;;;;;15.54;93.16;101331.47;4916774;28;45620;-81
2022/04/14 04:06:13;;;;;;;;;15.00;14.00;;;;;15.49;93.14;101322.50;4932283;28;45340;-82
2022/04/14 04:08:39;;;;;;;;;13.00;13.00;;;;;15.39;93.43;101308.16;4916393;28;47639;-81
2022/04/14 04:11:05;;;;;;;;;16.67;16.00;;;;;15.28;94.12;101312.63;4915938;28;45488;-82
2022/04/14 04:13:31;;;;;;;;;17.00;15.00;;;;;15.19;94.12;101313.47;4934564;28;45457;-82
2022/04/14 04:15:57;;;;;;;;;14.00;14.00;;;;;15.22;93.62;101323.31;4934091;28;45598;-80
2022/04/14 04:18:22;;;;;;;;;11.67;11.67;;;;;15.03;94.02;101300.88;4916965;28;48250;-81
2022/04/14 04:20:48;;;;;;;;;13.33;12.33;;;;;15.16;94.22;101327.75;4919388;28;45497;-81
2022/04/14 04:23:15;;;;;;;;;15.00;13.00;;;;;15.25;94.47;101336.72;4915774;28;45453;-81
2022/04/14 04:25:41;;;;;;;;;12.33;12.33;;;;;15.12;94.63;101330.41;4917172;28;44809;-81
2022/04/14 04:28:07;;;;;;;;;12.33;12.33;;;;;15.12;94.78;101342.00;4934960;28;45421;-81
2022/04/14 04:30:32;;;;;;;;;14.33;13.33;;;;;15.13;94.60;101342.94;4917049;28;45493;-81
2022/04/14 04:32:58;;;;;;;;;15.00;14.33;;;;;15.04;94.61;101326.78;4934403;28;44952;-81
2022/04/14 04:35:23;;;;;;;;;13.67;12.00;;;;;14.99;94.77;101327.66;4916238;28;44904;-81
2022/04/14 04:37:49;;;;;;;;;14.00;13.00;;;;;15.04;94.98;101350.91;4933913;28;45381;-82
2022/04/14 04:40:18;;;;;;;;;15.00;15.00;;;;;15.14;95.11;101350.94;4915485;28;45462;-81
2022/04/14 04:42:44;;;;;;;;;12.67;12.67;;;;;15.02;94.88;101339.28;4915929;28;44823;-81
2022/04/14 04:45:09;;;;;;;;;10.33;10.33;;;;;15.03;94.84;101360.72;4916635;28;44876;-80
2022/04/14 04:47:35;;;;;;;;;14.00;12.33;;;;;15.08;94.67;101358.06;4933366;28;45435;-81
2022/04/14 04:50:00;;;;;;;;;14.00;14.00;;;;;15.07;95.19;101359.84;4932073;28;45405;-80
2022/04/14 04:52:27;;;;;;;;;12.67;12.67;;;;;15.16;95.62;101359.00;4915201;28;45690;-82
2022/04/14 04:54:52;;;;;;;;;14.67;12.00;;;;;15.05;95.14;101355.34;4915628;28;45729;-81
2022/04/14 04:57:18;;;;;;;;;14.00;13.00;;;;;14.97;94.71;101336.59;4916281;28;45392;-82
2022/04/14 04:59:44;;;;;;;;;13.67;13.33;;;;;14.99;94.88;101341.06;4934624;28;44705;-81
2022/04/14 05:02:09;;;;;;;;;15.00;14.00;;;;;14.99;94.94;101354.44;4934311;28;45571;-81
2022/04/14 05:04:38;;;;;;;;;16.00;15.67;;;;;14.96;95.00;101356.22;4934802;28;45579;-81
2022/04/14 05:07:03;;;;;;;;;22.00;18.67;;;;;14.88;95.19;101357.94;4935009;28;46597;-81
2022/04/14 05:09:29;;;;;;;;;17.00;17.00;;;;;14.78;95.33;101348.94;4917209;28;45824;-80
2022/04/14 05:11:54;;;;;;;;;17.00;17.00;;;;;14.81;95.24;101362.38;4917010;28;45362;-81
2022/04/14 05:14:26;;;;;;;;;21.67;20.00;;;;;14.82;95.75;101358.81;4901934;28;45374;-82
2022/04/14 05:16:52;;;;;;;;;20.33;19.33;;;;;14.86;96.07;101359.72;4931393;28;47602;-82
2022/04/14 05:19:18;;;;;;;;;22.67;21.00;;;;;14.88;96.01;101358.84;4917206;28;45528;-82
2022/04/14 05:21:43;;;;;;;;;18.00;17.33;;;;;14.90;95.80;101359.75;4917185;28;44824;-82
2022/04/14 05:24:09;;;;;;;;;22.33;18.33;;;;;14.96;95.53;101366.94;4914955;28;44964;-80
2022/04/14 05:26:34;;;;;;;;;20.67;20.33;;;;;14.98;95.57;101376.75;4915337;28;46832;-80
2022/04/14 05:29:00;;;;;;;;;21.00;20.67;;;;;15.00;95.49;101374.97;4916818;28;45425;-81
2022/04/14 05:31:25;;;;;;;;;20.00;20.00;;;;;14.94;95.81;101374.94;4917121;28;45456;-80
2022/04/14 05:33:51;;;;;;;;;20.00;20.00;;;;;14.96;95.40;101377.63;4934048;28;45419;-81
2022/04/14 05:36:26;;;;;;;;;20.33;20.00;;;;;15.10;95.18;101375.03;4917062;28;47279;-80
2022/04/14 05:39:01;;;;;;;;;20.00;20.00;;;;;14.96;95.25;101378.53;4917101;28;44851;-82
2022/04/14 05:41:26;;;;;;;;;23.33;23.33;;;;;14.93;95.72;101373.16;4949894;28;44760;-82
2022/04/14 05:43:52;;;;;;;;;25.00;22.67;;;;;15.02;95.72;101371.44;4932347;28;44984;-80
2022/04/14 05:46:17;;;;;;;;;19.33;19.33;;;;;15.16;95.59;101383.13;4932817;28;45414;-82
2022/04/14 05:48:43;;;;;;;;;24.00;22.33;;;;;15.16;95.49;101375.97;4933345;28;44983;-81
2022/04/14 05:51:08;;;;;;;;;20.67;20.00;;;;;15.26;95.09;101374.22;4933792;28;45425;-81
2022/04/14 05:53:39;;;;;;;;;25.33;21.00;;;;;15.40;95.00;101385.03;4930531;28;45477;-82
2022/04/14 05:56:05;;;;;;;;;24.00;22.33;;;;;15.37;94.96;101385.91;4930074;28;47161;-80
2022/04/14 05:58:30;;;;;;;;;28.00;25.00;;;;;15.38;94.59;101382.34;4931217;28;45434;-83
2022/04/14 06:04:17;;;;;;;;;24.67;23.00;;;;;15.49;93.97;101382.41;4933080;28;45426;-81
2022/04/14 06:06:43;;;;;;;;;27.67;25.33;;;;;15.53;94.01;101392.25;4915301;28;47095;-80
2022/04/14 06:09:08;;;;;;;;;28.67;24.67;;;;;15.55;93.73;101395.81;4933397;28;45482;-82
2022/04/14 06:11:34;;;;;;;;;26.67;24.67;;;;;15.56;93.73;101407.44;4933764;28;45756;-83
2022/04/14 06:14:01;;;;;;;;;29.00;28.33;;;;;15.71;93.92;101415.53;4934966;28;45757;-83
2022/04/14 06:16:26;;;;;;;;;25.00;23.00;;;;;15.66;93.32;101414.63;4918509;28;45625;-83
2022/04/14 06:18:58;;;;;;;;;23.33;22.00;;;;;15.76;93.00;101416.47;4934530;28;44884;-83
2022/04/14 06:21:23;;;;;;;;;19.00;19.00;;;;;15.73;92.81;101427.19;4915197;28;44807;-83
2022/04/14 06:23:49;;;;;;;;;24.67;24.00;;;;;15.77;92.77;101429.03;4916330;28;45413;-83
2022/04/14 06:26:22;;;;;;;;;26.67;24.67;;;;;16.08;92.44;101420.13;4915411;28;45401;-84
2022/04/14 06:28:51;;;;;;;;;26.67;26.33;;;;;16.31;92.01;101421.09;4913566;29;45520;-83
2022/04/14 06:31:16;;;;;;;;;25.67;24.00;;;;;16.36;90.87;101424.69;4918747;28;44813;-82
2022/04/14 06:33:44;;;;;;;;;25.00;24.00;;;;;16.38;90.30;101436.31;4929359;28;45383;-84
2022/04/14 06:36:10;;;;;;;;;25.00;24.00;;;;;16.32;90.35;101432.69;4917467;28;46933;-82
2022/04/14 06:38:40;;;;;;;;;25.33;24.33;;;;;16.40;90.24;101436.28;4917174;28;45538;-82
2022/04/14 06:41:06;;;;;;;;;31.67;28.67;;;;;16.26;90.07;101432.69;4916126;28;45442;-83
2022/04/14 06:43:36;;;;;;;;;27.67;27.67;;;;;16.24;90.46;101437.16;4933660;28;45524;-82
2022/04/14 06:46:06;;;;;;;;;28.67;27.33;;;;;16.22;90.30;101422.84;4915959;28;45499;-83
2022/04/14 06:48:34;;;;;;;;;34.67;31.67;;;;;16.50;89.96;101443.50;4933512;28;45266;-83
2022/04/14 06:51:04;;;;;;;;;32.00;29.00;;;;;16.45;89.78;101439.91;4914898;28;45461;-82
2022/04/14 06:53:32;;;;;;;;;24.00;21.33;;;;;16.31;89.74;101426.44;4914927;28;44881;-82
2022/04/14 06:56:01;;;;;;;;;28.33;26.67;;;;;16.40;89.50;101444.34;4907393;28;47389;-83
2022/04/14 06:58:26;;;;;;;;;32.00;30.00;;;;;16.15;89.74;101424.63;4929365;28;45628;-83
2022/04/14 07:00:52;;;;;;;;;24.33;24.33;;;;;16.13;90.22;101434.47;4915703;28;45509;-82
2022/04/14 07:03:58;;;;;;;;;31.33;29.33;;;;;16.26;90.18;101436.31;4935039;28;45519;-84
2022/04/14 07:06:49;;;;;;;;;33.33;27.00;;;;;16.05;90.76;101410.28;4892985;29;45501;-81
2022/04/14 07:09:15;;;;;;;;;31.00;29.00;;;;;16.09;90.84;101425.50;4903970;28;45557;-83
2022/04/14 07:11:44;;;;;;;;;32.67;32.67;;;;;16.33;90.93;101445.25;4918477;28;45376;-82
2022/04/14 07:14:10;;;;;;;;;29.67;29.00;;;;;16.49;90.44;101449.75;4932504;28;45174;-82
2022/04/14 07:23:23;;;;;;;;;31.67;31.67;;;;;17.09;88.96;101440.81;4928412;28;45447;-84
2022/04/14 07:26:00;;;;;;;;;28.00;28.00;;;;;17.19;88.42;101440.78;4914579;28;44909;-83
2022/04/14 07:28:39;;;;;;;;;33.67;33.00;;;;;17.07;87.89;101405.88;4915147;28;45841;-83
2022/04/14 07:31:18;;;;;;;;;;;;;;;;;;;;;
2022/04/14 07:38:00;;;;;;;;;37.33;32.33;;;;;17.55;85.12;101405.72;4890619;29;44844;-84
2022/04/14 07:40:28;;;;;;;;;29.00;28.67;;;;;17.84;84.93;101437.03;4887715;29;46454;-84
2022/04/14 07:43:26;;;;;;;;;;;;;;;;;;;;;
2022/04/14 07:49:48;;;;;;;;;27.00;26.67;;;;;18.15;83.06;101435.94;4893731;29;45772;-85
2022/04/14 07:52:26;;;;;;;;;35.00;32.67;;;;;18.24;82.41;101434.09;4872630;29;46391;-85
2022/04/14 07:55:11;;;;;;;;;33.67;33.00;;;;;18.41;82.26;101444.75;4876854;29;45602;-84
2022/04/14 07:58:11;;;;;;;;;;;;;;;;;;;;;
2022/04/14 08:01:37;;;;;;;;;;;;;;;;;;;;;
2022/04/14 08:16:54;;;;;;;;;;;;;;;;;;;;;
2022/04/14 08:33:20;;;;;;;;;36.67;34.33;;;;;18.93;76.22;101452.47;4777076;29;44946;-84
2022/04/14 08:36:15;;;;;;;;;;;;;;;;;;;;;
2022/04/14 08:38:55;;;;;;;;;32.33;31.33;;;;;18.97;73.39;101438.94;4839602;29;45504;-84
2022/04/14 08:48:40;;;;;;;;;32.67;32.00;;;;;19.41;72.58;101465.44;4792672;29;45447;-84
2022/04/14 08:51:39;;;;;;;;;28.00;28.00;;;;;19.39;73.35;101463.69;4774980;29;45633;-84
2022/04/14 08:54:44;;;;;;;;;28.00;27.00;;;;;19.58;73.58;101464.34;4779945;29;46154;-82
2022/04/14 08:58:03;;;;;;;;;41.00;32.67;;;;;19.48;71.31;101441.09;4796725;29;45031;-83
2022/04/14 09:00:56;;;;;;;;;30.67;29.00;;;;;19.65;71.37;101464.28;4759156;29;45539;-84
2022/04/14 09:09:28;;;;;;;;;;;;;;;;;;;;;
2022/04/14 09:19:56;;;;;;;;;24.00;23.67;;;;;19.86;68.82;101469.47;4765789;29;45681;-84
2022/04/14 09:22:32;;;;;;;;;;;;;;;;;;;;;
2022/04/14 09:24:57;;;;;;;;;27.33;23.33;;;;;19.76;65.06;101471.38;4788945;29;67979;-84
2022/04/14 09:32:14;;;;;;;;;;;;;;;;;;;;;
2022/04/14 09:48:18;;;;;;;;;24.67;24.00;;;;;19.71;65.44;101405.78;4711080;30;45771;-82
2022/04/14 09:51:24;;;;;;;;;23.67;20.00;;;;;20.17;64.90;101448.31;4710728;30;45789;-83
2022/04/14 10:05:13;;;;;;;;;;;;;;;;;;;;;
2022/04/14 10:08:08;;;;;;;;;18.00;15.33;;;;;20.18;62.29;101428.50;4764873;29;65389;-83
2022/04/14 10:11:44;;;;;;;;;17.00;17.00;;;;;20.54;62.10;101463.06;4770864;29;45651;-84
2022/04/14 10:15:24;;;;;;;;;16.33;14.00;;;;;20.64;61.93;101461.16;4782097;29;45422;-84
2022/04/14 10:22:08;;;;;;;;;19.67;17.67;;;;;20.41;61.43;101405.66;4860927;29;44890;-85
2022/04/14 10:24:47;;;;;;;;;;;;;;;;;;;;;
2022/04/14 10:27:45;;;;;;;;;18.00;18.00;;;;;20.66;60.76;101445.81;4861735;29;72050;-84
2022/04/14 10:41:20;;;;;;;;;19.67;15.33;;;;;20.41;59.61;101397.53;4745929;30;45409;-84
2022/04/14 10:44:47;;;;;;;;;;;;;;;;;;;;;
2022/04/14 10:48:18;;;;;;;;;;;;;;;;;;;;;
2022/04/14 10:51:37;;;;;;;;;;;;;;;;;;;;;
2022/04/14 10:54:41;;;;;;;;;10.00;9.00;;;;;20.76;56.35;101405.09;4663994;30;72617;-84
2022/04/14 10:58:05;;;;;;;;;10.00;8.00;;;;;21.17;56.09;101443.13;4657558;30;45911;-85
2022/04/14 11:00:36;;;;;;;;;16.33;15.00;;;;;21.24;56.50;101444.78;4705302;30;45121;-83
2022/04/14 11:12:40;;;;;;;;;14.67;13.33;;;;;21.96;55.77;101445.16;3126893;26;45764;-85
2022/04/14 11:22:17;;;;;;;;;15.33;15.33;;;;;21.82;54.99;101452.69;4769580;29;45494;-83
2022/04/14 11:24:58;;;;;;;;;15.00;15.00;;;;;21.63;54.20;101420.56;4742179;29;45913;-87
2022/04/14 11:27:40;;;;;;;;;11.00;10.00;;;;;21.59;55.24;101418.84;4719375;30;47088;-85
2022/04/14 11:47:43;;;;;;;;;7.67;7.67;;;;;22.20;50.98;101410.28;4477109;26;45343;-87
2022/04/14 11:50:25;;;;;;;;;4.00;4.00;;;;;22.34;50.08;101419.94;4915508;28;47144;-83
2022/04/14 12:16:33;;;;;;;;;3.00;2.00;;;;;23.74;47.85;101427.06;4787705;29;45391;-83
2022/04/14 12:19:09;;;;;;;;;3.67;3.67;;;;;23.50;45.75;101381.63;4734968;30;44785;-84
2022/04/14 12:22:13;;;;;;;;;2.67;2.67;;;;;23.61;47.71;101398.47;4703690;30;44776;-84
2022/04/14 12:25:41;;;;;;;;;4.00;4.00;;;;;23.58;48.90;101404.00;4692523;30;45406;-86
2022/04/14 12:29:03;;;;;;;;;5.00;4.00;;;;;23.55;47.37;101393.22;4715211;30;45693;-85
2022/04/14 12:32:17;;;;;;;;;4.67;4.67;;;;;23.48;47.42;101372.63;4712286;30;45505;-83
2022/04/14 12:35:10;;;;;;;;;5.00;4.67;;;;;23.67;46.21;101401.03;4656171;30;44810;-84
2022/04/14 12:45:20;;;;;;;;;;;;;;;;;;;;;
2022/04/14 12:47:57;;;;;;;;;3.00;3.00;;;;;22.66;46.66;101376.66;4671715;30;45056;-84
2022/04/14 12:50:26;;;;;;;;;4.67;3.33;;;;;22.56;46.28;101385.06;4719311;30;44838;-84
2022/04/14 13:06:46;;;;;;;;;4.00;3.00;;;;;22.79;47.33;101404.38;5406434;23;46942;-84
2022/04/14 13:12:44;;;;;;;;;1.00;1.00;;;;;22.51;43.67;101364.41;4859741;29;45127;-81
2022/04/14 13:15:29;;;;;;;;;3.33;3.00;;;;;22.67;45.36;101427.28;4858575;29;45550;-84
2022/04/14 13:18:15;;;;;;;;;2.67;2.67;;;;;22.66;45.53;101406.50;4866520;29;44957;-83
2022/04/14 13:21:19;;;;;;;;;3.00;2.67;;;;;22.40;43.29;101361.06;4860373;29;44862;-86
2022/04/14 13:27:06;;;;;;;;;;;;;;;;;;;;;
2022/04/14 13:36:41;;;;;;;;;;;;;;;;;;;;;
2022/04/14 13:42:30;;;;;;;;;1.00;1.00;;;;;22.81;41.73;101406.13;4807598;29;44816;-87
2022/04/14 13:45:28;;;;;;;;;1.00;1.00;;;;;22.67;42.04;101360.38;4769107;29;44897;-88
2022/04/14 13:51:57;;;;;;;;;0.67;0.67;;;;;22.95;43.90;101384.06;4841001;29;45351;-86
2022/04/14 13:54:46;;;;;;;;;2.00;2.00;;;;;22.71;44.39;101345.81;4842661;29;45387;-85
2022/04/14 14:03:49;;;;;;;;;1.00;1.00;;;;;23.22;43.53;101392.38;4715844;30;45556;-86
2022/04/14 14:06:24;;;;;;;;;2.67;1.33;;;;;23.11;42.41;101350.16;4772504;29;44851;-85
2022/04/14 14:15:49;;;;;;;;;2.33;2.33;;;;;31.03;36.75;101354.91;4858482;29;45595;-85
2022/04/14 14:18:47;;;;;;;;;3.00;3.00;;;;;32.79;27.53;101369.09;4877394;29;45578;-86
2022/04/14 14:21:18;;;;;;;;;2.67;2.67;;;;;33.52;31.29;101333.63;4850230;29;45380;-87
2022/04/14 14:23:53;;;;;;;;;5.33;3.00;;;;;34.47;29.70;101368.81;4815290;29;45781;-85
2022/04/14 14:26:18;;;;;;;;;2.67;2.00;;;;;35.53;28.42;101362.38;4839285;29;48086;-84
2022/04/14 14:28:44;;;;;;;;;2.00;1.33;;;;;36.53;26.45;101365.13;4843595;29;45521;-85
2022/04/14 14:31:14;;;;;;;;;1.67;1.67;;;;;36.84;26.07;101363.38;4840559;29;44799;-86
2022/04/14 14:34:13;;;;;;;;;;;;;;;;;;;;;
2022/04/14 14:36:47;;;;;;;;;2.25;2.25;;;;;32.46;27.50;101350.22;4838748;29;74437;-87
2022/04/14 14:39:15;;;;;;;;;2.00;2.00;;;;;33.31;28.77;101363.66;4840137;29;45422;-85
2022/04/14 14:41:55;;;;;;;;;;;;;;;;;;;;;
2022/04/14 14:44:52;;;;;;;;;2.00;1.33;;;;;37.39;27.09;101373.34;4826091;29;65891;-84
2022/04/14 14:51:05;;;;;;;;;1.00;1.00;;;;;31.61;25.90;101377.84;4806494;29;44768;-87
2022/04/14 14:53:34;;;;;;;;;0.00;0.00;;;;;29.74;29.39;101386.28;4802387;29;45684;-85
2022/04/14 14:56:01;;;;;;;;;1.00;1.00;;;;;28.46;29.50;101363.78;4825335;29;45639;-85
2022/04/14 15:01:46;;;;;;;;;1.00;1.00;;;;;26.94;31.99;101351.81;4869234;29;44865;-85
2022/04/14 15:04:24;;;;;;;;;2.00;2.00;;;;;26.66;32.53;101368.53;4861438;29;44890;-85
2022/04/14 15:07:18;;;;;;;;;;;;;;;;;;;;;
2022/04/14 15:10:14;;;;;;;;;2.00;2.00;;;;;25.77;34.08;101355.78;4865982;29;74865;-85
2022/04/14 15:12:44;;;;;;;;;0.50;0.50;;;;;25.50;34.40;101380.44;4850963;29;44889;-85
2022/04/14 15:18:31;;;;;;;;;2.33;2.33;;;;;24.95;35.59;101384.22;4873519;29;45524;-86
2022/04/14 15:21:00;;;;;;;;;1.00;1.00;;;;;24.92;35.88;101357.09;4873470;29;46565;-85
2022/04/14 15:23:34;;;;;;;;;0.50;0.50;;;;;24.79;36.16;101361.22;4876008;29;45386;-86
2022/04/14 15:26:04;;;;;;;;;0.50;0.50;;;;;24.62;36.83;101366.34;4875440;29;45432;-85
2022/04/14 15:32:13;;;;;;;;;;;;;;;;;;;;;
2022/04/14 15:34:41;;;;;;;;;1.25;1.25;;;;;24.24;37.60;101334.06;4819625;29;71656;-85
2022/04/14 15:37:16;;;;;;;;;1.75;1.75;;;;;24.20;37.50;101334.19;4804483;29;45494;-86
2022/04/14 15:40:11;;;;;;;;;1.33;1.33;;;;;24.40;37.60;101386.09;4818243;29;45316;-86
2022/04/14 15:42:49;;;;;;;;;;;;;;;;;;;;;
2022/04/14 15:45:24;;;;;;;;;1.00;1.00;;;;;24.10;37.50;101371.66;4918405;28;71855;-84
2022/04/14 15:47:55;;;;;;;;;2.00;1.00;;;;;24.17;38.30;101390.41;4898213;28;45558;-85
2022/04/14 15:50:58;;;;;;;;;1.00;1.00;;;;;24.15;37.56;101375.13;4915264;28;45376;-86
2022/04/14 15:53:24;;;;;;;;;2.00;2.00;;;;;23.96;38.50;101369.41;4854749;29;45591;-85
2022/04/14 15:55:56;;;;;;;;;1.00;1.00;;;;;24.03;38.34;101360.09;4841599;29;45488;-87
2022/04/14 15:58:28;;;;;;;;;1.00;1.00;;;;;23.79;38.47;101352.72;4857619;29;45457;-86
2022/04/14 16:00:56;;;;;;;;;0.33;0.33;;;;;23.93;38.31;101380.34;4841173;29;45508;-85
2022/04/14 16:03:32;;;;;;;;;1.00;1.00;;;;;23.94;38.85;101360.41;4858855;29;45399;-86
2022/04/14 16:06:04;;;;;;;;;1.00;1.00;;;;;23.81;38.66;101338.16;4841332;29;44849;-85
2022/04/14 16:57:54;;;;;;;;;1.00;1.00;;;;;24.14;38.52;101393.25;5117251;23;47086;-85
2022/04/14 17:00:28;;;;;;;;;0.00;0.00;;;;;24.02;37.21;101385.50;4876075;29;46437;-84
2022/04/14 17:02:54;;;;;;;;;1.00;1.00;;;;;23.93;37.96;101410.22;4861153;29;45553;-84
2022/04/14 17:05:19;;;;;;;;;2.00;2.00;;;;;23.78;38.67;101395.31;4877933;29;45545;-83
2022/04/14 17:07:45;;;;;;;;;0.00;0.00;;;;;23.63;39.04;101372.19;4878222;29;44822;-82
2022/04/14 17:10:11;;;;;;;;;1.00;1.00;;;;;23.65;38.63;101375.75;4878618;29;44905;-84